Time;durP1;ratioP1;P1;durP2;ratioP2;P2;SDS_P1;SDS_P2;PMS_P1;PMS_P2;Temp;Humidity;BMP_temperature;BMP_pressure;BME280_temperature;BME280_humidity;BME280_pressure;Samples;Min_cycle;Max_cycle;Signal;HPM_P1;HPM_P2
2022/11/03 00:02:12;;;;;;;12.27;2.78;;;11.10;99.90;;;;;;4878080;29;20051;-86
2022/11/03 00:04:44;;;;;;;16.70;2.67;;;11.10;99.90;;;;;;4889264;29;20063;-86
2022/11/03 00:07:09;;;;;;;10.10;1.88;;;11.10;99.90;;;;;;4859414;29;20115;-86
2022/11/03 00:09:35;;;;;;;7.82;2.17;;;11.10;99.90;;;;;;4878506;29;20048;-86
2022/11/03 00:12:04;;;;;;;12.77;2.45;;;11.10;99.90;;;;;;4879466;29;20040;-86
2022/11/03 00:14:31;;;;;;;16.23;3.40;;;11.10;99.90;;;;;;4877463;29;20511;-86
2022/11/03 00:16:57;;;;;;;14.45;1.88;;;11.90;99.90;;;;;;4874013;29;20558;-86
2022/11/03 00:19:28;;;;;;;13.23;2.33;;;11.10;99.90;;;;;;4890587;29;20040;-86
2022/11/03 00:21:59;;;;;;;15.68;2.60;;;11.10;99.90;;;;;;4880764;29;20036;-86
2022/11/03 00:24:33;;;;;;;17.08;2.97;;;11.30;99.90;;;;;;4905194;29;20372;-86
2022/11/03 00:26:59;;;;;;;9.73;1.90;;;11.20;99.90;;;;;;4891658;29;20060;-87
2022/11/03 00:29:35;;;;;;;13.63;2.70;;;11.10;99.90;;;;;;4881913;29;20102;-86
2022/11/03 00:32:16;;;;;;;15.70;3.03;;;11.10;99.90;;;;;;4894148;29;20044;-86
2022/11/03 00:34:55;;;;;;;10.60;2.53;;;11.10;99.90;;;;;;4887503;29;20044;-86
2022/11/03 00:37:20;;;;;;;13.10;3.15;;;11.10;99.90;;;;;;4875620;29;20410;-86
2022/11/03 00:39:46;;;;;;;15.85;2.47;;;11.40;99.90;;;;;;4878294;29;20032;-86
2022/11/03 00:42:12;;;;;;;12.35;3.10;;;11.10;99.90;;;;;;4877627;29;20456;-86
2022/11/03 00:44:38;;;;;;;11.05;2.15;;;11.10;99.90;;;;;;4889291;29;20076;-86
2022/11/03 00:47:03;;;;;;;10.25;2.03;;;11.10;99.90;;;;;;4893629;29;20104;-86
2022/11/03 00:49:29;;;;;;;14.95;2.72;;;11.00;99.90;;;;;;4878047;29;20044;-86
2022/11/03 00:51:55;;;;;;;12.73;2.03;;;11.30;99.90;;;;;;4888355;29;20063;-86
2022/11/03 00:54:20;;;;;;;14.02;2.58;;;11.00;99.90;;;;;;4875498;29;20040;-86
2022/11/03 00:56:46;;;;;;;9.45;2.00;;;11.00;99.90;;;;;;4892292;29;20040;-87
2022/11/03 00:59:11;;;;;;;12.38;2.47;;;11.00;99.90;;;;;;4892328;29;20035;-86
2022/11/03 01:01:45;;;;;;;16.63;2.28;;;11.00;99.90;;;;;;4887736;29;20078;-86
2022/11/03 01:06:58;;;;;;;15.40;2.60;;;11.10;99.90;;;;;;4892486;29;20551;-86
2022/11/03 01:09:26;;;;;;;10.15;2.08;;;10.90;99.90;;;;;;4909053;29;20036;-86
2022/11/03 01:12:01;;;;;;;18.00;2.47;;;10.90;99.90;;;;;;4891936;29;20044;-86
2022/11/03 01:14:30;;;;;;;14.80;3.38;;;10.90;99.90;;;;;;4889937;29;20055;-86
2022/11/03 01:16:56;;;;;;;14.50;2.42;;;10.90;99.90;;;;;;4905381;29;20041;-86
2022/11/03 01:19:22;;;;;;;14.55;3.45;;;10.90;99.90;;;;;;4873794;29;20055;-86
2022/11/03 01:21:48;;;;;;;10.45;2.20;;;10.90;99.90;;;;;;4908546;29;20040;-86
2022/11/03 01:24:14;;;;;;;11.05;1.45;;;10.90;99.90;;;;;;4873588;29;20147;-86
2022/11/03 01:26:39;;;;;;;12.20;2.47;;;11.50;99.90;;;;;;4877804;29;20182;-86
2022/11/03 01:29:08;;;;;;;12.68;2.47;;;10.90;99.90;;;;;;4905546;29;20044;-86
2022/11/03 01:31:34;;;;;;;12.65;2.42;;;10.90;99.90;;;;;;4876384;29;20079;-86
2022/11/03 01:33:59;;;;;;;13.38;2.35;;;10.90;99.90;;;;;;4904838;29;20523;-86
2022/11/03 01:36:25;;;;;;;16.40;3.10;;;10.90;99.90;;;;;;4874450;29;20059;-85
2022/11/03 01:38:52;;;;;;;9.35;1.55;;;10.90;99.90;;;;;;4889021;29;20080;-86
2022/11/03 01:41:20;;;;;;;12.02;2.50;;;10.90;99.90;;;;;;4905101;29;20115;-86
2022/11/03 01:44:07;;;;;;;8.65;2.13;;;11.40;99.90;;;;;;4878467;29;20127;-86
2022/11/03 01:46:41;;;;;;;17.27;2.20;;;10.90;99.90;;;;;;4897445;29;20380;-86
2022/11/03 01:49:11;;;;;;;17.63;3.03;;;10.80;99.90;;;;;;4897218;29;20164;-86
2022/11/03 01:51:37;;;;;;;13.00;2.17;;;10.80;99.90;;;;;;4885441;29;20055;-86
2022/11/03 01:54:30;;;;;;;12.38;2.65;;;11.10;99.90;;;;;;4880000;29;20044;-86
2022/11/03 01:56:58;;;;;;;12.25;2.38;;;10.70;99.90;;;;;;4882708;29;20048;-86
2022/11/03 01:59:25;;;;;;;11.73;2.30;;;10.70;99.90;;;;;;4881751;29;20514;-86
2022/11/03 02:01:51;;;;;;;15.18;2.85;;;10.80;99.90;;;;;;4875499;29;20040;-86
2022/11/03 02:04:29;;;;;;;15.18;2.92;;;10.70;99.90;;;;;;4876172;29;20467;-86
2022/11/03 02:07:54;;;;;;;13.10;1.85;;;10.70;99.90;;;;;;4881389;29;20040;-86
2022/11/03 02:10:21;;;;;;;13.10;2.00;;;10.70;99.90;;;;;;4829759;29;20049;-87
2022/11/03 02:12:47;;;;;;;11.27;1.85;;;10.70;99.90;;;;;;4875958;29;20092;-87
2022/11/03 02:15:24;;;;;;;15.20;2.22;;;11.20;99.90;;;;;;4881839;29;20040;-86
2022/11/03 02:17:52;;;;;;;12.10;1.85;;;10.60;99.90;;;;;;4890894;29;20558;-85
2022/11/03 02:20:25;;;;;;;11.45;1.92;;;10.70;99.90;;;;;;4881244;29;20047;-86
2022/11/03 02:23:08;;;;;;;13.00;2.47;;;10.60;99.90;;;;;;4892083;29;20058;-86
2022/11/03 02:25:57;;;;;;;8.57;1.75;;;10.70;99.90;;;;;;4878927;29;20044;-86
2022/11/03 02:28:30;;;;;;;15.77;3.30;;;10.70;99.90;;;;;;4886939;29;20531;-86
2022/11/03 02:31:05;;;;;;;10.35;2.50;;;10.70;99.90;;;;;;4894827;29;20716;-86
2022/11/03 02:34:00;;;;;;;11.07;1.83;;;10.70;99.90;;;;;;4907644;29;20048;-86
2022/11/03 02:36:48;;;;;;;12.50;2.57;;;10.70;99.90;;;;;;4881005;29;20040;-86
2022/11/03 02:39:32;;;;;;;8.93;2.25;;;10.60;99.90;;;;;;4905650;29;20088;-86
2022/11/03 02:42:00;;;;;;;8.45;1.85;;;10.60;99.90;;;;;;4882575;29;20131;-86
2022/11/03 02:44:26;;;;;;;12.95;3.20;;;10.60;99.90;;;;;;4896559;29;20036;-86
2022/11/03 02:46:59;;;;;;;16.77;3.45;;;10.60;99.90;;;;;;4908547;29;20491;-86
2022/11/03 02:49:25;;;;;;;14.30;2.08;;;10.60;99.90;;;;;;4895444;29;20115;-86
2022/11/03 02:52:03;;;;;;;13.07;1.95;;;10.70;99.90;;;;;;4892633;29;20136;-85
2022/11/03 02:54:40;;;;;;;10.88;2.38;;;10.70;99.90;;;;;;4905725;29;20123;-86
2022/11/03 02:57:22;;;;;;;13.95;2.92;;;10.60;99.90;;;;;;4913913;29;20048;-86
2022/11/03 03:00:06;;;;;;;11.15;2.08;;;10.70;99.90;;;;;;4890514;29;20120;-86
2022/11/03 03:02:37;;;;;;;14.07;2.65;;;10.80;99.90;;;;;;4894141;29;20380;-86
2022/11/03 03:05:07;;;;;;;11.15;2.20;;;11.50;99.90;;;;;;4909383;29;20048;-86
2022/11/03 03:07:39;;;;;;;16.88;2.85;;;10.80;99.90;;;;;;4897434;29;20091;-86
2022/11/03 03:10:11;;;;;;;12.57;2.35;;;10.80;99.90;;;;;;4894028;29;20179;-86
2022/11/03 03:12:42;;;;;;;10.45;2.22;;;10.80;99.90;;;;;;4915551;29;20056;-86
2022/11/03 03:15:08;;;;;;;11.40;2.15;;;10.80;99.90;;;;;;4892921;29;20507;-86
2022/11/03 03:18:06;;;;;;;10.00;2.33;;;10.90;99.90;;;;;;4911213;29;20062;-87
2022/11/03 03:20:38;;;;;;;9.02;2.03;;;10.90;99.90;;;;;;4894298;29;20040;-86
2022/11/03 03:23:30;;;;;;;16.70;2.85;;;10.90;99.90;;;;;;4894398;29;20096;-87
2022/11/03 03:26:06;;;;;;;8.07;1.73;;;10.90;99.90;;;;;;4906582;29;20032;-86
2022/11/03 03:28:35;;;;;;;;;;;10.90;99.90;;;;;;4889041;29;20055;-86
2022/11/03 03:31:06;;;;;;;11.32;2.20;;;10.90;99.90;;;;;;4894744;29;19923;-87
2022/11/03 03:33:33;;;;;;;12.07;2.25;;;10.90;99.90;;;;;;4893751;29;20369;-86
2022/11/03 03:36:02;;;;;;;12.55;1.80;;;10.90;99.90;;;;;;4908673;29;20040;-87
2022/11/03 03:38:36;;;;;;;15.68;2.47;;;10.90;99.90;;;;;;4891768;29;20127;-86
2022/11/03 03:41:03;;;;;;;10.65;1.80;;;10.90;99.90;;;;;;4890912;29;20119;-86
2022/11/03 03:43:31;;;;;;;8.65;1.73;;;10.90;99.90;;;;;;4894147;29;20044;-86
2022/11/03 03:46:02;;;;;;;13.43;2.42;;;10.90;99.90;;;;;;4910854;29;20071;-86
2022/11/03 03:48:28;;;;;;;13.32;2.30;;;10.80;99.90;;;;;;4887712;29;20127;-86
2022/11/03 03:50:55;;;;;;;11.93;1.98;;;10.90;99.90;;;;;;4907147;29;20116;-86
2022/11/03 03:53:20;;;;;;;13.95;2.33;;;10.90;99.90;;;;;;4880959;29;20060;-86
2022/11/03 03:55:52;;;;;;;15.80;3.13;;;10.80;99.90;;;;;;4897964;29;20036;-86
2022/11/03 03:58:17;;;;;;;10.75;1.92;;;11.00;99.90;;;;;;4877644;29;20111;-86
2022/11/03 04:00:43;;;;;;;14.52;2.50;;;10.80;99.90;;;;;;4880264;29;20040;-86
2022/11/03 04:03:16;;;;;;;12.05;2.10;;;10.80;99.90;;;;;;4892167;29;20126;-86
2022/11/03 04:05:42;;;;;;;9.13;1.73;;;10.80;99.90;;;;;;4884012;29;20075;-87
2022/11/03 04:08:09;;;;;;;7.20;1.63;;;11.00;99.90;;;;;;4893475;29;20040;-86
2022/11/03 04:10:35;;;;;;;10.80;2.38;;;10.90;99.90;;;;;;4909615;29;20036;-85
2022/11/03 04:23:47;;;;;;;15.15;2.05;;;10.90;99.90;;;;;;4894390;29;20090;-86
2022/11/03 04:26:18;;;;;;;12.63;2.33;;;10.80;99.90;;;;;;4879136;29;20068;-85
2022/11/03 04:28:44;;;;;;;10.30;1.90;;;10.80;99.90;;;;;;4874541;29;20040;-86
2022/11/03 04:31:18;;;;;;;12.45;2.17;;;10.90;99.90;;;;;;4890241;29;20047;-86
2022/11/03 04:33:46;;;;;;;16.45;2.35;;;10.90;99.90;;;;;;4878673;29;20054;-86
2022/11/03 04:36:32;;;;;;;12.52;1.92;;;10.90;99.90;;;;;;4880350;29;20059;-86
2022/11/03 04:38:58;;;;;;;12.32;3.28;;;10.90;99.90;;;;;;4886591;29;20135;-85
2022/11/03 04:41:28;;;;;;;12.55;2.30;;;10.90;99.90;;;;;;4893360;29;20136;-86
2022/11/03 04:43:54;;;;;;;9.07;2.25;;;10.90;99.90;;;;;;4896769;29;20036;-86
2022/11/03 04:46:30;;;;;;;12.10;2.28;;;10.90;99.90;;;;;;4892835;29;20039;-86
2022/11/03 04:48:58;;;;;;;;;;;10.90;99.90;;;;;;4883880;29;20075;-87
2022/11/03 04:51:28;;;;;;;12.68;2.17;;;10.90;99.90;;;;;;4872606;29;20456;-85
2022/11/03 04:53:57;;;;;;;13.50;2.03;;;11.00;99.90;;;;;;4891619;29;20054;-86
2022/11/03 04:56:24;;;;;;;11.70;2.05;;;11.10;99.90;;;;;;4894190;29;20059;-85
2022/11/03 04:58:51;;;;;;;10.52;1.77;;;11.00;99.90;;;;;;4881581;29;20036;-86
2022/11/03 05:01:20;;;;;;;11.30;2.05;;;11.00;99.90;;;;;;4880079;29;20123;-86
2022/11/03 05:03:53;;;;;;;13.27;2.20;;;11.10;99.90;;;;;;4911209;29;20039;-86
2022/11/03 05:06:25;;;;;;;13.45;2.17;;;11.00;99.90;;;;;;4892811;29;20048;-86
2022/11/03 05:08:58;;;;;;;11.38;1.75;;;11.00;99.90;;;;;;4893986;29;20574;-86
2022/11/03 05:11:45;;;;;;;11.25;2.65;;;11.00;99.90;;;;;;4894392;29;20451;-86
2022/11/03 05:14:26;;;;;;;10.55;2.00;;;11.00;99.90;;;;;;4883532;29;20107;-86
2022/11/03 05:17:30;;;;;;;10.82;1.90;;;11.00;99.90;;;;;;4867229;29;20377;-88
2022/11/03 05:20:00;;;;;;;10.13;2.17;;;11.00;99.90;;;;;;4894000;29;20044;-86
2022/11/03 05:22:34;;;;;;;12.27;2.28;;;11.30;99.90;;;;;;4896564;29;20226;-85
2022/11/03 05:25:22;;;;;;;8.70;1.90;;;11.00;99.90;;;;;;4886733;29;20123;-85
2022/11/03 05:28:19;;;;;;;8.90;2.25;;;11.00;99.90;;;;;;4865636;29;20482;-89
2022/11/03 05:34:44;;;;;;;10.35;1.83;;;11.00;99.90;;;;;;4911892;29;20133;-89
2022/11/03 05:37:32;;;;;;;11.45;1.77;;;11.00;99.90;;;;;;4900964;29;20040;-85
2022/11/03 05:40:00;;;;;;;12.45;2.88;;;11.20;99.90;;;;;;4886236;29;20048;-84
2022/11/03 05:42:41;;;;;;;14.73;2.70;;;10.90;99.90;;;;;;4886227;29;20039;-87
2022/11/03 05:46:04;;;;;;;10.45;2.13;;;11.10;99.90;;;;;;4882055;29;20107;-88
2022/11/03 05:48:37;;;;;;;14.27;1.85;;;11.00;99.90;;;;;;4878228;29;20511;-88
2022/11/03 05:51:28;;;;;;;12.57;1.77;;;11.00;99.90;;;;;;4868507;29;20056;-87
2022/11/03 06:08:50;;;;;;;12.75;1.75;;;10.90;99.90;;;;;;4896314;29;20044;-87
2022/11/03 06:11:36;;;;;;;14.55;3.42;;;10.80;99.90;;;;;;4908438;29;20056;-88
2022/11/03 06:14:22;;;;;;;16.05;2.47;;;10.60;99.90;;;;;;4882440;29;20040;-86
2022/11/03 06:16:56;;;;;;;10.75;2.10;;;10.90;99.90;;;;;;4896287;29;20531;-86
2022/11/03 06:19:24;;;;;;;12.70;2.50;;;11.60;99.90;;;;;;4895643;29;20040;-86
2022/11/03 06:22:49;;;;;;;27.98;3.30;;;10.90;99.90;;;;;;4879940;29;20154;-88
2022/11/03 06:29:03;;;;;;;9.60;2.30;;;11.00;99.90;;;;;;4905085;29;20147;-87
2022/11/03 06:35:57;;;;;;;9.10;1.92;;;10.90;99.90;;;;;;4908453;29;20042;-88
2022/11/03 06:38:59;;;;;;;12.77;2.35;;;10.90;99.90;;;;;;4844712;29;20044;-91
2022/11/03 06:53:27;;;;;;;11.07;2.35;;;10.90;99.90;;;;;;4906345;29;20096;-88
2022/11/03 06:59:11;;;;;;;12.25;3.03;;;10.90;99.90;;;;;;4909098;29;20051;-89
2022/11/03 07:05:50;;;;;;;10.63;2.22;;;11.10;99.90;;;;;;4874503;29;20048;-87
2022/11/03 07:12:20;;;;;;;13.57;2.00;;;11.00;99.90;;;;;;4757416;30;20046;-87
2022/11/03 07:15:56;;;;;;;10.52;3.10;;;11.00;99.90;;;;;;4694262;30;20655;-88
2022/11/03 07:18:59;;;;;;;8.52;2.08;;;11.10;99.90;;;;;;4745737;30;20191;-87
2022/11/03 07:21:41;;;;;;;10.65;1.92;;;11.20;99.90;;;;;;4743146;29;20100;-90
2022/11/03 08:30:46;;;;;;;12.40;2.75;;;12.40;99.90;;;;;;4838576;29;20049;-87
2022/11/03 08:33:46;;;;;;;10.75;2.33;;;12.40;99.90;;;;;;4835380;29;20124;-89
2022/11/03 08:36:21;;;;;;;11.40;2.93;;;12.80;99.90;;;;;;4819787;29;20108;-86
2022/11/03 08:39:44;;;;;;;12.10;2.90;;;12.50;99.90;;;;;;4800645;29;20133;-87
2022/11/03 08:42:12;;;;;;;9.50;2.08;;;12.50;99.90;;;;;;4877046;29;20066;-88
2022/11/03 08:44:38;;;;;;;8.63;2.33;;;12.70;99.90;;;;;;4915041;29;20502;-87
2022/11/03 08:47:03;;;;;;;9.70;2.20;;;12.60;99.90;;;;;;4894687;29;20035;-86
2022/11/03 08:49:29;;;;;;;14.38;2.53;;;12.60;99.90;;;;;;4895128;29;20638;-88
2022/11/03 08:51:54;;;;;;;12.70;2.53;;;12.60;99.90;;;;;;4898755;29;20044;-89
2022/11/03 08:54:20;;;;;;;14.40;2.67;;;12.70;99.90;;;;;;4904788;29;20123;-87
2022/11/03 08:56:47;;;;;;;10.40;3.10;;;12.70;99.90;;;;;;4892190;29;20111;-87
2022/11/03 08:59:13;;;;;;;11.40;2.55;;;12.90;99.90;;;;;;4895955;29;20079;-87
2022/11/03 09:01:38;;;;;;;12.30;2.30;;;12.80;99.90;;;;;;4913486;29;20150;-86
2022/11/03 09:04:04;;;;;;;10.52;2.60;;;12.80;99.90;;;;;;4887381;29;20535;-87
2022/11/03 09:06:29;;;;;;;13.23;2.30;;;12.80;99.90;;;;;;4893065;29;20430;-88
2022/11/03 09:08:55;;;;;;;13.02;2.45;;;12.90;99.90;;;;;;4892205;29;20055;-86
2022/11/03 09:11:21;;;;;;;11.95;2.55;;;12.90;99.90;;;;;;4875430;29;20124;-87
2022/11/03 09:13:46;;;;;;;15.38;3.35;;;13.60;99.90;;;;;;4880675;29;20043;-88
2022/11/03 09:16:15;;;;;;;10.38;2.22;;;13.00;99.90;;;;;;4893605;29;20044;-88
2022/11/03 09:18:44;;;;;;;9.80;2.22;;;13.00;99.90;;;;;;4887565;29;20048;-86
2022/11/03 09:21:09;;;;;;;12.45;2.38;;;13.10;99.90;;;;;;4907482;29;20107;-87
2022/11/03 09:23:35;;;;;;;12.60;2.33;;;13.10;99.90;;;;;;4905306;29;20072;-86
2022/11/03 09:26:00;;;;;;;10.70;2.58;;;13.10;99.90;;;;;;4887283;29;20044;-87
2022/11/03 09:28:38;;;;;;;12.38;2.78;;;13.20;99.90;;;;;;4906287;29;20033;-89
2022/11/03 09:31:04;;;;;;;12.30;2.55;;;13.10;99.90;;;;;;4883102;29;20035;-86
2022/11/03 09:33:45;;;;;;;10.05;2.42;;;13.30;99.90;;;;;;4898038;29;20291;-86
2022/11/03 09:37:22;;;;;;;12.68;2.35;;;13.40;99.90;;;;;;4907842;29;20047;-88
2022/11/03 09:48:07;;;;;;;13.82;1.98;;;13.80;99.90;;;;;;4740609;30;20184;-89
2022/11/03 09:54:56;;;;;;;13.48;2.78;;;14.00;99.90;;;;;;4759601;29;20166;-88
2022/11/03 09:58:03;;;;;;;23.45;3.22;;;14.10;99.90;;;;;;4774220;29;20127;-90
2022/11/03 10:00:58;;;;;;;;;;;14.10;99.90;;;;;;4764604;29;20076;-87
2022/11/03 10:03:39;;;;;;;18.15;2.80;;;14.50;99.90;;;;;;4790353;29;19933;-87
2022/11/03 10:06:22;;;;;;;10.25;2.53;;;14.20;99.90;;;;;;4816669;29;20478;-88
2022/11/03 10:09:25;;;;;;;9.40;1.73;;;14.20;99.90;;;;;;4896598;29;20570;-87
2022/11/03 10:12:12;;;;;;;15.07;2.97;;;14.20;99.90;;;;;;4874022;29;20041;-87
2022/11/03 10:14:49;;;;;;;9.93;2.70;;;14.20;99.90;;;;;;4880820;29;20043;-88
2022/11/03 10:20:55;;;;;;;18.65;2.95;;;14.40;99.90;;;;;;4837604;29;20049;-87
2022/11/03 10:28:04;;;;;;;;;;;;;;;;;;;;;
2022/11/03 10:34:18;;;;;;;13.70;2.53;;;15.10;99.90;;;;;;4902147;29;20095;-87
2022/11/03 10:38:19;;;;;;;;;;;;;;;;;;;;;
2022/11/03 10:45:21;;;;;;;9.70;2.35;;;14.60;99.90;;;;;;4890150;29;20127;-87
2022/11/03 10:52:02;;;;;;;;;;;;;;;;;;;;;
2022/11/03 10:55:04;;;;;;;13.82;2.67;;;15.70;99.90;;;;;;4827702;29;20045;-89
2022/11/03 11:04:57;;;;;;;7.18;1.77;;;15.20;99.90;;;;;;4835541;29;20132;-87
2022/11/03 11:07:29;;;;;;;8.23;2.15;;;16.00;99.90;;;;;;4892714;29;20071;-88
2022/11/03 11:10:07;;;;;;;9.63;2.38;;;15.90;99.90;;;;;;4879490;29;20079;-91
2022/11/03 15:15:15;;;;;;;8.45;0.85;;;14.60;99.90;;;;;;4934696;29;20039;-86
2022/11/03 15:17:42;;;;;;;8.90;1.58;;;14.60;99.90;;;;;;4923903;29;20043;-88
2022/11/03 15:20:09;;;;;;;9.50;1.52;;;14.60;99.90;;;;;;4903954;29;20039;-90
2022/11/03 15:22:35;;;;;;;8.77;1.50;;;14.50;99.90;;;;;;4909006;29;20098;-86
2022/11/03 15:25:01;;;;;;;7.07;0.90;;;14.50;99.90;;;;;;4908219;28;20505;-87
2022/11/03 15:27:26;;;;;;;3.60;0.68;;;14.60;99.90;;;;;;4901563;29;20039;-87
2022/11/03 15:29:52;;;;;;;7.03;0.95;;;14.30;99.90;;;;;;4938677;29;20043;-86
2022/11/03 15:32:18;;;;;;;3.53;1.00;;;14.40;99.90;;;;;;4906650;29;20062;-87
2022/11/03 15:34:44;;;;;;;6.65;0.90;;;14.30;99.90;;;;;;4923636;29;20039;-86
2022/11/03 15:37:09;;;;;;;5.60;0.95;;;14.50;99.90;;;;;;4916386;29;20043;-86
2022/11/03 15:39:41;;;;;;;7.63;1.13;;;14.20;99.90;;;;;;4911050;29;20047;-88
2022/11/03 15:42:06;;;;;;;4.00;1.15;;;14.20;99.90;;;;;;4910076;29;20494;-87
2022/11/03 15:44:35;;;;;;;5.30;1.25;;;14.10;99.90;;;;;;4907707;29;20042;-88
2022/11/03 15:47:04;;;;;;;5.07;1.20;;;14.20;99.90;;;;;;4917958;29;20863;-88
2022/11/03 15:49:32;;;;;;;7.28;1.65;;;14.40;99.90;;;;;;4921247;29;20074;-88
2022/11/03 15:52:01;;;;;;;3.15;0.88;;;14.30;99.90;;;;;;4903578;29;20043;-88
2022/11/03 15:54:27;;;;;;;6.22;0.95;;;14.30;99.90;;;;;;4928735;29;20039;-88
2022/11/03 15:57:01;;;;;;;9.20;1.20;;;14.30;99.90;;;;;;4920284;29;20589;-88
2022/11/03 15:59:27;;;;;;;4.70;0.85;;;14.00;99.90;;;;;;4904251;29;20043;-87
2022/11/03 16:01:53;;;;;;;6.18;1.40;;;14.00;99.90;;;;;;4937741;29;20032;-87
2022/11/03 16:04:19;;;;;;;17.15;1.95;;;14.00;99.90;;;;;;4902100;29;20060;-87
2022/11/03 16:06:44;;;;;;;12.85;1.40;;;14.30;99.90;;;;;;4898644;29;20036;-87
2022/11/03 16:09:10;;;;;;;8.43;1.10;;;14.40;99.90;;;;;;4917660;29;20047;-87
2022/11/03 16:11:35;;;;;;;8.00;1.00;;;14.10;99.90;;;;;;4920714;29;20497;-87
2022/11/03 16:14:01;;;;;;;4.43;1.00;;;13.90;99.90;;;;;;4899039;29;20059;-87
2022/11/03 16:16:27;;;;;;;5.53;1.50;;;14.50;99.90;;;;;;4898352;29;20123;-87
2022/11/03 16:18:52;;;;;;;6.22;1.42;;;13.90;99.90;;;;;;4897171;29;20076;-86
2022/11/03 16:21:24;;;;;;;6.68;1.38;;;14.00;99.90;;;;;;4897436;29;20043;-86
2022/11/03 16:23:52;;;;;;;5.78;1.10;;;14.00;99.90;;;;;;4920709;29;20228;-87
2022/11/03 16:26:20;;;;;;;6.00;1.55;;;13.40;99.90;;;;;;4935171;29;20090;-87
2022/11/03 16:28:46;;;;;;;7.32;1.35;;;13.80;99.90;;;;;;4908873;29;20039;-87
2022/11/03 16:31:12;;;;;;;13.30;1.90;;;13.90;99.90;;;;;;4911795;29;20118;-87
2022/11/03 16:33:38;;;;;;;7.60;1.75;;;13.90;99.90;;;;;;4916721;29;20050;-87
2022/11/03 16:36:04;;;;;;;10.40;1.60;;;14.00;99.90;;;;;;4915708;29;20047;-87
2022/11/03 16:38:29;;;;;;;13.00;2.05;;;13.80;99.90;;;;;;4928085;29;20123;-87
2022/11/03 16:40:55;;;;;;;9.65;1.45;;;14.20;99.90;;;;;;4895006;29;20173;-87
2022/11/03 16:43:26;;;;;;;3.92;0.82;;;14.10;99.90;;;;;;4908759;29;20109;-86
2022/11/03 16:45:52;;;;;;;32.78;3.67;;;14.50;99.90;;;;;;4898042;29;20475;-87
2022/11/03 16:48:19;;;;;;;4.13;0.82;;;13.80;99.90;;;;;;4919357;29;20043;-87
2022/11/03 16:50:45;;;;;;;4.38;1.00;;;13.80;99.90;;;;;;4908104;29;20048;-87
2022/11/03 16:53:10;;;;;;;4.93;1.10;;;14.30;99.90;;;;;;4912542;29;20035;-87
2022/11/03 16:55:48;;;;;;;3.60;1.20;;;13.90;99.90;;;;;;4915774;29;20904;-87
2022/11/03 16:58:22;;;;;;;6.57;1.13;;;14.80;99.90;;;;;;4927306;29;20044;-87
2022/11/03 17:00:47;;;;;;;4.93;0.77;;;14.20;99.90;;;;;;4888544;29;20047;-87
2022/11/03 17:03:16;;;;;;;6.00;1.15;;;13.90;99.90;;;;;;4898385;29;20043;-87
2022/11/03 17:05:50;;;;;;;4.70;0.70;;;14.10;99.90;;;;;;4921170;29;20673;-87
2022/11/03 17:12:28;;;;;;;7.35;1.50;;;13.80;99.90;;;;;;4931501;29;20046;-85
2022/11/03 17:14:54;;;;;;;4.60;1.10;;;13.70;99.90;;;;;;4891575;29;20040;-83
2022/11/03 17:17:22;;;;;;;5.22;1.10;;;13.80;99.90;;;;;;4897760;29;20051;-83
2022/11/03 17:19:48;;;;;;;5.65;1.17;;;13.80;99.90;;;;;;4898107;29;20102;-85
2022/11/03 17:22:13;;;;;;;6.68;1.20;;;13.60;99.90;;;;;;4901335;29;20092;-83
2022/11/03 17:24:39;;;;;;;7.03;1.48;;;13.60;99.90;;;;;;4891858;29;20094;-84
2022/11/03 17:27:27;;;;;;;3.60;1.15;;;13.50;99.90;;;;;;4896354;29;20051;-84
2022/11/03 17:30:09;;;;;;;5.15;1.52;;;13.30;99.90;;;;;;4897740;29;20070;-85
2022/11/03 17:32:41;;;;;;;6.50;1.60;;;13.10;99.90;;;;;;4904818;29;20135;-83
2022/11/03 17:35:56;;;;;;;7.28;2.13;;;13.20;99.90;;;;;;4901492;29;20474;-84
2022/11/03 17:38:23;;;;;;;5.93;1.40;;;13.00;99.90;;;;;;4895576;29;20514;-85
2022/11/03 17:40:51;;;;;;;10.65;2.75;;;12.90;99.90;;;;;;4910871;29;20051;-85
2022/11/03 17:43:25;;;;;;;5.40;1.73;;;12.90;99.90;;;;;;4895327;29;20039;-84
2022/11/03 17:45:52;;;;;;;8.35;2.00;;;12.80;99.90;;;;;;4893079;29;20478;-85
2022/11/03 17:48:23;;;;;;;4.63;1.80;;;12.70;99.90;;;;;;4907144;29;20044;-84
2022/11/03 17:50:52;;;;;;;7.60;2.03;;;12.60;99.90;;;;;;4897648;29;20044;-85
2022/11/03 17:53:22;;;;;;;8.07;2.25;;;12.50;99.90;;;;;;4905749;29;20044;-86
2022/11/03 17:55:50;;;;;;;5.32;2.33;;;12.50;99.90;;;;;;4906304;29;20058;-85
2022/11/03 17:58:16;;;;;;;7.25;2.38;;;12.40;99.90;;;;;;4907312;29;20123;-84
2022/11/03 18:00:42;;;;;;;11.18;2.97;;;12.40;99.90;;;;;;4893436;29;20036;-84
2022/11/03 18:03:13;;;;;;;4.72;2.50;;;12.30;99.90;;;;;;4898272;29;20043;-83
2022/11/03 18:05:39;;;;;;;4.25;1.90;;;12.30;99.90;;;;;;4910799;29;20070;-83
2022/11/03 18:08:09;;;;;;;8.27;2.63;;;12.30;99.90;;;;;;4911799;29;20071;-83
2022/11/03 18:10:39;;;;;;;7.30;2.83;;;12.20;99.90;;;;;;4894172;29;20048;-83
2022/11/03 18:13:19;;;;;;;6.55;2.20;;;12.20;99.90;;;;;;4905745;29;20050;-82
2022/11/03 18:16:14;;;;;;;8.32;3.30;;;12.20;99.90;;;;;;4896308;29;20095;-83
2022/11/03 18:18:44;;;;;;;10.25;3.30;;;12.20;99.90;;;;;;4889851;29;20055;-83
2022/11/03 18:21:15;;;;;;;9.43;3.22;;;12.10;99.90;;;;;;4889945;29;20068;-84
2022/11/03 18:23:40;;;;;;;5.53;3.13;;;12.10;99.90;;;;;;4895480;29;20050;-83
2022/11/03 18:26:16;;;;;;;6.60;3.22;;;12.00;99.90;;;;;;4922268;29;20043;-83
2022/11/03 18:28:49;;;;;;;9.35;3.47;;;12.10;99.90;;;;;;4912515;29;20047;-82
2022/11/03 18:31:45;;;;;;;6.72;2.92;;;12.10;99.90;;;;;;4908148;29;20039;-83
2022/11/03 18:34:13;;;;;;;;;;;12.00;99.90;;;;;;4891734;29;20990;-82
2022/11/03 18:36:38;;;;;;;8.30;3.60;;;12.00;99.90;;;;;;4901954;29;19926;-82
2022/11/03 18:39:04;;;;;;;10.02;3.95;;;11.90;99.90;;;;;;4917498;29;20115;-81
2022/11/03 18:41:39;;;;;;;7.50;3.88;;;11.90;99.90;;;;;;4894145;29;21290;-82
2022/11/03 18:44:30;;;;;;;7.55;3.47;;;11.90;99.90;;;;;;4899242;29;20036;-82
2022/11/03 18:46:57;;;;;;;7.80;4.13;;;11.90;99.90;;;;;;4899605;29;20103;-82
2022/11/03 18:49:24;;;;;;;7.50;4.40;;;11.90;99.90;;;;;;4907685;29;20055;-82
2022/11/03 18:51:57;;;;;;;9.60;5.00;;;11.90;99.90;;;;;;4900241;29;20044;-82
2022/11/03 18:54:24;;;;;;;8.55;4.22;;;11.80;99.90;;;;;;4909564;29;20071;-83
2022/11/03 18:57:45;;;;;;;9.23;4.43;;;12.60;99.90;;;;;;4907384;29;20043;-85
2022/11/03 19:00:41;;;;;;;8.85;4.20;;;11.80;99.90;;;;;;4913872;29;20087;-84
2022/11/03 19:03:22;;;;;;;14.85;5.15;;;12.00;99.90;;;;;;4893992;29;20040;-85
2022/11/03 19:05:49;;;;;;;9.60;4.50;;;11.80;99.90;;;;;;4893432;29;20527;-84
2022/11/03 19:09:08;;;;;;;9.80;5.28;;;11.90;99.90;;;;;;4913687;29;20044;-87
2022/11/03 19:11:36;;;;;;;6.68;4.70;;;11.80;99.90;;;;;;4901398;29;20581;-85
2022/11/03 19:14:06;;;;;;;8.98;5.35;;;11.80;99.90;;;;;;4909208;29;20143;-84
2022/11/03 19:16:38;;;;;;;7.38;4.88;;;11.80;99.90;;;;;;4910820;29;20504;-85
2022/11/03 19:19:25;;;;;;;10.60;6.00;;;11.80;99.90;;;;;;4898093;29;20414;-86
2022/11/03 19:22:43;;;;;;;10.02;5.32;;;11.80;99.90;;;;;;4919450;29;20131;-84
2022/11/03 19:27:44;;;;;;;9.55;5.55;;;11.80;99.90;;;;;;4908921;23;20456;-84
2022/11/03 19:30:14;;;;;;;8.10;5.72;;;11.80;99.90;;;;;;4888550;29;20051;-85
2022/11/03 19:32:44;;;;;;;9.57;5.70;;;11.80;99.90;;;;;;4905445;29;20380;-84
2022/11/03 19:35:18;;;;;;;11.88;6.60;;;11.80;99.90;;;;;;4891616;29;20369;-85
2022/11/03 19:37:47;;;;;;;10.98;6.60;;;11.80;99.90;;;;;;4871890;29;20063;-85
2022/11/03 19:40:22;;;;;;;9.10;6.28;;;11.80;99.90;;;;;;4877116;29;20136;-84
2022/11/03 19:48:39;;;;;;;10.18;7.57;;;11.80;99.90;;;;;;4917303;23;20079;-85
2022/11/03 19:51:08;;;;;;;12.38;8.02;;;12.00;99.90;;;;;;4901418;29;20496;-85
2022/11/03 19:53:33;;;;;;;15.50;9.23;;;11.80;99.90;;;;;;4886047;29;20488;-85
2022/11/03 19:56:03;;;;;;;11.65;9.00;;;12.00;99.90;;;;;;4895521;29;20052;-87
2022/11/03 19:58:29;;;;;;;12.80;8.93;;;11.70;99.90;;;;;;4891701;29;20059;-86
2022/11/03 20:00:58;;;;;;;10.63;9.10;;;11.70;99.90;;;;;;4898821;29;20052;-85
2022/11/03 20:03:26;;;;;;;10.25;9.15;;;11.70;99.90;;;;;;4901416;29;20060;-85
2022/11/03 20:05:56;;;;;;;14.00;10.05;;;11.70;99.90;;;;;;4899025;29;20123;-85
2022/11/03 20:08:49;;;;;;;12.82;9.65;;;11.80;99.90;;;;;;4915629;29;20056;-86
2022/11/03 20:11:14;;;;;;;17.02;9.90;;;11.80;99.90;;;;;;4885619;29;20536;-86
2022/11/03 20:14:16;;;;;;;13.15;9.93;;;11.70;99.90;;;;;;4871198;29;20159;-87
2022/11/03 20:16:51;;;;;;;11.50;9.07;;;11.80;99.90;;;;;;4891428;29;20062;-86
2022/11/03 20:19:32;;;;;;;12.25;9.82;;;11.80;99.90;;;;;;4888855;29;20044;-88
2022/11/03 20:21:58;;;;;;;16.65;10.98;;;11.80;99.90;;;;;;4886674;29;20028;-88
2022/11/03 20:24:26;;;;;;;12.68;9.75;;;11.70;99.90;;;;;;4890614;29;20143;-87
2022/11/03 20:27:06;;;;;;;14.77;11.07;;;11.80;99.90;;;;;;4886554;29;20095;-88